Terminal Aerodrome Forecast
Issued by NWS

Home | Current Version | Previous Version | Graphics & Text | Print | Product List | Glossary On
Versions: 1 2 3 4 5 6 7 8 9 10 11 12 13 14 15 16
000
FTUS43 KMPX 302053 AAA
TAFRNH
TAF AMD
KRNH 302053Z 3021/3118 20008KT P6SM SCT090
     FM310300 18005KT P6SM SCT150
     FM310600 22006KT P6SM FEW150
     FM311400 35008KT P6SM OVC015=

USA.gov is the U.S. government's official web portal to all federal, state and local government web resources and services.